Thunder radar more information blitzortung!


Radar de pluja more information rain snow radar


Visita la nostra xarxa de llocs de meteo:

Template documentation
and downloads

And another site



No particular awareness of the weather is required.    There are no Weather-warnings

Pagina Historial Weather Underground text

Diari Resum Agost 13, 2017 Unitats:  Mètric    Imperial   Tant
« Previous Dia
SegĂźent Dia »
Diari Setmana Mensual Anual Personalitzada
  Maxima: Minima: Media:
Temperatura: 30.9 °C 15.9 °C 24.8 °C
Punt de rosada: 16.8 °C 10.7 °C 14.4 °C
Humitat: 80 % 39 % 54 %
Wind Speed: 24.1 km/h 0.0 km/h 6.4 km/h
RĂ fegues de vent: 24.1 km/h - -
Vent:- - SSW
Pression baro: 1019.9 hPa 1014.8 hPa -
Precipitacions: 0.0 mm    
Historical Graphs
 
 
Dades de taula per Agost 13, 2017
Temps Temperatura Punt de rosada Pression baro Vent Wind Speed RĂ fegues de vent Humitat Rainfall Rate (Hourly)
00:01 20.4 °C 12.1 °C 1019.9 hPa Calm     59 % 0.0 mm
00:05 17.4 °C 11.9 °C 1017.8 hPa WNW 1.6 km/h 1.6 km/h 70 % 0.0 mm
00:06 20.4 °C 12.1 °C 1019.9 hPa Calm     59 % 0.0 mm
00:11 20.4 °C 12.1 °C 1019.9 hPa Calm     59 % 0.0 mm
00:15 17.4 °C 11.9 °C 1017.8 hPa Calm   1.6 km/h 70 % 0.0 mm
00:16 20.4 °C 12.4 °C 1019.9 hPa Calm     60 % 0.0 mm
00:21 20.3 °C 12.0 °C 1019.9 hPa WNW 1.4 km/h   59 % 0.0 mm
00:25 17.1 °C 11.4 °C 1017.8 hPa Calm   1.6 km/h 69 % 0.0 mm
00:26 20.3 °C 12.3 °C 1019.9 hPa Calm     60 % 0.0 mm
00:31 20.3 °C 12.3 °C 1019.9 hPa Calm     60 % 0.0 mm
00:35 17.0 °C 11.5 °C 1017.8 hPa Calm   1.6 km/h 70 % 0.0 mm
00:36 20.2 °C 12.2 °C 1019.9 hPa Calm     60 % 0.0 mm
00:45 16.7 °C 11.4 °C 1017.8 hPa Calm     71 % 0.0 mm
00:55 16.6 °C 11.1 °C 1016.8 hPa NE 1.6 km/h 1.6 km/h 70 % 0.0 mm
01:05 16.5 °C 11.0 °C 1017.8 hPa Calm   1.6 km/h 70 % 0.0 mm
01:15 16.5 °C 11.2 °C 1017.8 hPa Calm   1.6 km/h 71 % 0.0 mm
01:25 16.5 °C 11.2 °C 1016.8 hPa Calm     71 % 0.0 mm
01:35 16.4 °C 11.1 °C 1017.8 hPa Calm   1.6 km/h 71 % 0.0 mm
01:45 16.2 °C 10.7 °C 1017.8 hPa WSW 1.6 km/h 3.2 km/h 70 % 0.0 mm
01:55 16.0 °C 10.7 °C 1017.8 hPa Calm   1.6 km/h 71 % 0.0 mm
02:05 16.0 °C 10.7 °C 1017.8 hPa WSW 3.2 km/h 3.2 km/h 71 % 0.0 mm
02:15 16.0 °C 10.9 °C 1017.8 hPa Calm   1.6 km/h 72 % 0.0 mm
02:25 15.9 °C 10.8 °C 1017.8 hPa Calm     72 % 0.0 mm
02:35 16.0 °C 10.9 °C 1017.8 hPa WSW 1.6 km/h 3.2 km/h 72 % 0.0 mm
02:45 16.5 °C 11.4 °C 1017.8 hPa Calm   1.6 km/h 72 % 0.0 mm
02:55 16.9 °C 11.6 °C 1017.8 hPa SSW 1.6 km/h 3.2 km/h 71 % 0.0 mm
03:05 17.9 °C 12.1 °C 1018.8 hPa Calm     69 % 0.0 mm
03:15 17.8 °C 11.8 °C 1018.8 hPa SW 1.6 km/h 3.2 km/h 68 % 0.0 mm
03:25 17.5 °C 11.3 °C 1017.8 hPa SW 1.6 km/h 3.2 km/h 67 % 0.0 mm
03:35 18.0 °C 12.0 °C 1018.8 hPa SW 1.6 km/h 3.2 km/h 68 % 0.0 mm
03:45 18.3 °C 12.1 °C 1018.8 hPa SW 1.6 km/h 3.2 km/h 67 % 0.0 mm
03:55 19.0 °C 12.3 °C 1018.8 hPa SW 3.2 km/h 3.2 km/h 65 % 0.0 mm
04:05 19.4 °C 12.7 °C 1018.8 hPa SW 3.2 km/h 3.2 km/h 65 % 0.0 mm
04:15 20.4 °C 13.3 °C 1018.8 hPa SSW 1.6 km/h 1.6 km/h 64 % 0.0 mm
04:25 21.2 °C 13.6 °C 1018.8 hPa South 1.6 km/h 3.2 km/h 62 % 0.0 mm
04:35 21.4 °C 13.6 °C 1018.8 hPa SW 1.6 km/h 3.2 km/h 61 % 0.0 mm
04:45 22.3 °C 13.9 °C 1018.8 hPa NW 1.6 km/h 3.2 km/h 59 % 0.0 mm
04:55 22.7 °C 14.0 °C 1018.8 hPa NNE 3.2 km/h 8.0 km/h 58 % 0.0 mm
05:05 22.8 °C 13.8 °C 1018.8 hPa ENE 3.2 km/h 4.8 km/h 57 % 0.0 mm
05:15 23.3 °C 14.3 °C 1018.8 hPa Calm   4.8 km/h 57 % 0.0 mm
05:25 24.0 °C 14.4 °C 1018.8 hPa ESE 1.6 km/h 3.2 km/h 55 % 0.0 mm
05:35 24.6 °C 14.7 °C 1018.8 hPa ESE 1.6 km/h 4.8 km/h 54 % 0.0 mm
05:45 25.2 °C 14.7 °C 1018.8 hPa NE 1.6 km/h 4.8 km/h 52 % 0.0 mm
10:46 24.7 °C 14.2 °C 1018.8 hPa North 5.6 km/h 5.6 km/h 52 % 0.0 mm
10:47 24.7 °C 14.2 °C 1018.8 hPa North 5.6 km/h 5.6 km/h 52 % 0.0 mm
10:52 24.9 °C 14.1 °C 1018.8 hPa ESE 3.9 km/h 3.9 km/h 51 % 0.0 mm
10:57 25.4 °C 14.2 °C 1018.8 hPa WSW 5.3 km/h 5.3 km/h 50 % 0.0 mm
11:02 25.4 °C 14.2 °C 1018.8 hPa SSW 3.7 km/h 3.7 km/h 50 % 0.0 mm
11:07 26.0 °C 14.8 °C 1018.8 hPa ENE 3.7 km/h 3.7 km/h 50 % 0.0 mm
11:12 25.6 °C 13.8 °C 1018.8 hPa ESE 6.1 km/h 6.1 km/h 48 % 0.0 mm
11:17 25.9 °C 14.4 °C 1018.8 hPa ENE 7.4 km/h 7.4 km/h 49 % 0.0 mm
11:22 26.0 °C 14.4 °C 1018.8 hPa East 3.9 km/h 3.9 km/h 49 % 0.0 mm
11:27 26.7 °C 15.1 °C 1018.8 hPa WSW 3.7 km/h 3.7 km/h 49 % 0.0 mm
11:32 26.8 °C 14.9 °C 1018.8 hPa East 3.9 km/h 3.9 km/h 48 % 0.0 mm
11:37 27.1 °C 14.8 °C 1018.8 hPa SSE 1.9 km/h 1.9 km/h 47 % 0.0 mm
11:42 27.7 °C 14.7 °C 1018.8 hPa SSE 5.6 km/h 5.6 km/h 45 % 0.0 mm
11:47 27.9 °C 15.2 °C 1018.8 hPa SE 3.7 km/h 3.7 km/h 46 % 0.0 mm
11:52 28.1 °C 15.4 °C 1018.8 hPa ESE 4.2 km/h 4.2 km/h 46 % 0.0 mm
11:57 27.9 °C 14.9 °C 1018.8 hPa SE 5.6 km/h 5.6 km/h 45 % 0.0 mm
12:02 27.4 °C 14.8 °C 1018.8 hPa WSW 5.6 km/h 5.6 km/h 46 % 0.0 mm
12:07 27.5 °C 14.5 °C 1018.8 hPa SW 7.4 km/h 7.4 km/h 45 % 0.0 mm
12:12 28.1 °C 15.1 °C 1018.8 hPa WSW 6.9 km/h 6.9 km/h 45 % 0.0 mm
12:17 28.3 °C 15.2 °C 1018.8 hPa East 7.4 km/h 7.4 km/h 45 % 0.0 mm
12:22 27.9 °C 14.5 °C 1018.8 hPa East 5.6 km/h 5.8 km/h 44 % 0.0 mm
12:27 28.3 °C 15.2 °C 1018.8 hPa ESE 5.6 km/h 5.6 km/h 45 % 0.0 mm
12:32 28.2 °C 15.2 °C 1018.8 hPa West 7.4 km/h 7.4 km/h 45 % 0.0 mm
12:37 28.5 °C 15.4 °C 1018.8 hPa WSW 3.7 km/h 3.9 km/h 45 % 0.0 mm
12:42 29.4 °C 15.5 °C 1018.8 hPa South 5.6 km/h 5.6 km/h 43 % 0.0 mm
12:47 28.9 °C 15.8 °C 1017.8 hPa ESE 7.4 km/h 7.4 km/h 45 % 0.0 mm
12:52 29.2 °C 15.7 °C 1017.8 hPa South 5.3 km/h 5.3 km/h 44 % 0.0 mm
12:57 29.2 °C 16.1 °C 1017.8 hPa ESE 11.1 km/h 11.1 km/h 45 % 0.0 mm
13:02 28.2 °C 15.5 °C 1016.8 hPa ESE 9.3 km/h 9.3 km/h 46 % 0.0 mm
13:07 28.4 °C 16.0 °C 1016.8 hPa ENE 9.3 km/h 9.3 km/h 47 % 0.0 mm
13:12 27.8 °C 15.4 °C 1016.8 hPa ENE 14.8 km/h 14.8 km/h 47 % 0.0 mm
13:17 28.5 °C 16.4 °C 1017.8 hPa ESE 10.0 km/h 10.0 km/h 48 % 0.0 mm
13:22 28.3 °C 16.2 °C 1017.8 hPa East 11.1 km/h 11.4 km/h 48 % 0.0 mm
13:27 27.9 °C 16.2 °C 1017.8 hPa SSE 13.0 km/h 13.0 km/h 49 % 0.0 mm
13:32 27.6 °C 16.2 °C 1017.8 hPa ESE 11.1 km/h 11.1 km/h 50 % 0.0 mm
13:37 27.3 °C 15.9 °C 1017.8 hPa East 13.0 km/h 13.0 km/h 50 % 0.0 mm
13:42 27.1 °C 16.1 °C 1017.8 hPa ESE 14.8 km/h 14.8 km/h 51 % 0.0 mm
13:47 27.1 °C 16.1 °C 1016.8 hPa ESE 13.0 km/h 13.0 km/h 51 % 0.0 mm
13:52 27.7 °C 16.7 °C 1016.8 hPa East 11.1 km/h 11.1 km/h 51 % 0.0 mm
13:57 27.7 °C 16.7 °C 1016.8 hPa ESE 24.1 km/h 24.1 km/h 51 % 0.0 mm
14:02 27.3 °C 15.9 °C 1017.8 hPa ESE 16.7 km/h 16.7 km/h 50 % 0.0 mm
14:07 27.4 °C 16.4 °C 1017.8 hPa ENE 9.7 km/h 9.7 km/h 51 % 0.0 mm
14:12 27.4 °C 16.4 °C 1017.8 hPa ESE 13.0 km/h 13.0 km/h 51 % 0.0 mm
14:17 27.2 °C 16.2 °C 1017.8 hPa NNE 13.0 km/h 13.0 km/h 51 % 0.0 mm
14:22 27.1 °C 16.1 °C 1017.8 hPa ESE 14.8 km/h 14.8 km/h 51 % 0.0 mm
14:27 27.2 °C 16.2 °C 1017.8 hPa SE 10.0 km/h 10.0 km/h 51 % 0.0 mm
14:32 27.1 °C 16.1 °C 1017.8 hPa East 9.3 km/h 9.3 km/h 51 % 0.0 mm
14:37 27.6 °C 16.6 °C 1017.8 hPa ESE 16.7 km/h 16.7 km/h 51 % 0.0 mm
14:42 28.2 °C 16.8 °C 1017.8 hPa SE 5.6 km/h 5.6 km/h 50 % 0.0 mm
14:47 29.5 °C 16.7 °C 1017.8 hPa SSE 7.4 km/h 7.4 km/h 46 % 0.0 mm
14:52 29.8 °C 16.6 °C 1017.8 hPa SW 13.0 km/h 13.0 km/h 45 % 0.0 mm
14:57 29.8 °C 16.2 °C 1017.8 hPa SW 20.4 km/h 20.4 km/h 44 % 0.0 mm
15:02 30.0 °C 16.1 °C 1017.8 hPa SW 16.7 km/h 16.7 km/h 43 % 0.0 mm
15:07 29.8 °C 15.5 °C 1017.8 hPa SW 7.9 km/h 7.9 km/h 42 % 0.0 mm
15:12 30.6 °C 15.8 °C 1017.8 hPa SW 5.6 km/h 5.6 km/h 41 % 0.0 mm
15:17 30.1 °C 15.4 °C 1017.8 hPa WSW 14.8 km/h 14.8 km/h 41 % 0.0 mm
15:22 30.1 °C 15.0 °C 1017.8 hPa SW 7.4 km/h 7.4 km/h 40 % 0.0 mm
15:27 29.8 °C 14.7 °C 1017.8 hPa SSW 14.8 km/h 14.8 km/h 40 % 0.0 mm
15:32 29.9 °C 14.8 °C 1016.8 hPa WSW 9.3 km/h 9.3 km/h 40 % 0.0 mm
15:37 30.7 °C 15.6 °C 1016.8 hPa SE 4.2 km/h 4.2 km/h 40 % 0.0 mm
15:42 30.7 °C 15.6 °C 1016.8 hPa SW 13.0 km/h 13.0 km/h 40 % 0.0 mm
15:47 30.9 °C 15.7 °C 1016.8 hPa SSW 13.0 km/h 13.0 km/h 40 % 0.0 mm
15:52 30.5 °C 15.4 °C 1016.8 hPa SSW 14.8 km/h 14.8 km/h 40 % 0.0 mm
15:57 30.2 °C 15.1 °C 1016.8 hPa South 7.4 km/h 7.4 km/h 40 % 0.0 mm
16:02 30.2 °C 15.1 °C 1016.8 hPa West 11.1 km/h 11.1 km/h 40 % 0.0 mm
16:07 30.3 °C 15.2 °C 1016.8 hPa WSW 14.8 km/h 14.8 km/h 40 % 0.0 mm
16:12 30.4 °C 15.3 °C 1016.8 hPa SW 11.9 km/h 11.9 km/h 40 % 0.0 mm
16:17 30.0 °C 14.6 °C 1016.8 hPa WSW 16.7 km/h 16.7 km/h 39 % 0.0 mm
16:22 30.0 °C 14.6 °C 1016.8 hPa SW 14.8 km/h 14.8 km/h 39 % 0.0 mm
16:27 30.2 °C 14.7 °C 1016.8 hPa West 14.8 km/h 14.8 km/h 39 % 0.0 mm
16:32 30.2 °C 14.7 °C 1016.8 hPa SW 14.8 km/h 14.8 km/h 39 % 0.0 mm
16:37 30.1 °C 14.6 °C 1016.8 hPa SW 11.1 km/h 11.1 km/h 39 % 0.0 mm
16:42 29.7 °C 14.3 °C 1016.8 hPa SSW 14.8 km/h 14.8 km/h 39 % 0.0 mm
16:47 29.9 °C 14.4 °C 1016.8 hPa SSW 13.0 km/h 13.0 km/h 39 % 0.0 mm
16:52 30.2 °C 14.7 °C 1016.8 hPa SW 11.1 km/h 11.1 km/h 39 % 0.0 mm
16:57 30.0 °C 14.6 °C 1016.8 hPa SW 9.5 km/h 9.5 km/h 39 % 0.0 mm
16:59 30.0 °C 14.6 °C 1015.8 hPa WNW 9.5 km/h 9.5 km/h 39 % 0.0 mm
17:04 29.9 °C 14.4 °C 1015.8 hPa SW 9.3 km/h 9.3 km/h 39 % 0.0 mm
17:09 29.9 °C 14.4 °C 1015.8 hPa WSW 11.1 km/h 11.1 km/h 39 % 0.0 mm
17:14 29.6 °C 14.2 °C 1015.8 hPa WSW 14.8 km/h 14.8 km/h 39 % 0.0 mm
17:19 29.4 °C 14.4 °C 1015.8 hPa SW 13.0 km/h 13.0 km/h 40 % 0.0 mm
17:24 29.4 °C 14.4 °C 1015.8 hPa SSW 11.1 km/h 11.1 km/h 40 % 0.0 mm
17:29 29.5 °C 14.5 °C 1015.8 hPa SW 14.8 km/h 14.8 km/h 40 % 0.0 mm
17:34 29.6 °C 14.9 °C 1015.8 hPa WSW 7.9 km/h 7.9 km/h 41 % 0.0 mm
17:39 29.7 °C 15.1 °C 1015.8 hPa SW 6.1 km/h 6.1 km/h 41 % 0.0 mm
17:44 29.5 °C 14.9 °C 1015.8 hPa SW 11.1 km/h 11.1 km/h 41 % 0.0 mm
17:49 29.3 °C 14.7 °C 1015.8 hPa WSW 7.4 km/h 7.4 km/h 41 % 0.0 mm
17:54 29.3 °C 14.7 °C 1015.8 hPa SW 13.0 km/h 13.0 km/h 41 % 0.0 mm
17:59 29.1 °C 14.9 °C 1015.8 hPa SW 6.9 km/h 6.9 km/h 42 % 0.0 mm
18:04 29.2 °C 14.9 °C 1015.8 hPa WSW 13.0 km/h 13.0 km/h 42 % 0.0 mm
18:09 29.3 °C 15.1 °C 1015.8 hPa SW 9.3 km/h 9.3 km/h 42 % 0.0 mm
18:14 29.0 °C 14.8 °C 1015.8 hPa South 9.3 km/h 9.3 km/h 42 % 0.0 mm
18:19 28.6 °C 14.8 °C 1015.8 hPa SW 14.8 km/h 14.8 km/h 43 % 0.0 mm
18:24 28.6 °C 14.8 °C 1015.8 hPa South 7.4 km/h 7.4 km/h 43 % 0.0 mm
18:29 28.9 °C 15.1 °C 1015.8 hPa WSW 11.9 km/h 11.9 km/h 43 % 0.0 mm
18:34 28.6 °C 14.8 °C 1015.8 hPa WSW 11.4 km/h 11.4 km/h 43 % 0.0 mm
18:39 28.4 °C 14.9 °C 1015.8 hPa SW 11.1 km/h 11.1 km/h 44 % 0.0 mm
18:44 28.4 °C 14.9 °C 1015.8 hPa SW 13.0 km/h 13.0 km/h 44 % 0.0 mm
18:49 28.6 °C 15.2 °C 1015.8 hPa SSW 5.8 km/h 5.8 km/h 44 % 0.0 mm
18:54 28.1 °C 14.3 °C 1015.8 hPa SSW 14.8 km/h 14.8 km/h 43 % 0.0 mm
18:59 28.1 °C 14.3 °C 1014.8 hPa SW 12.6 km/h 12.6 km/h 43 % 0.0 mm
19:04 27.8 °C 14.4 °C 1014.8 hPa SW 9.5 km/h 9.5 km/h 44 % 0.0 mm
19:09 27.9 °C 14.5 °C 1014.8 hPa SSW 5.6 km/h 5.6 km/h 44 % 0.0 mm
19:14 27.9 °C 14.5 °C 1015.8 hPa SW 9.5 km/h 9.5 km/h 44 % 0.0 mm
19:15 21.7 °C 15.6 °C 1017.8 hPa Calm     68 % 0.0 mm
19:19 27.6 °C 14.2 °C 1015.8 hPa WSW 9.5 km/h 9.5 km/h 44 % 0.0 mm
19:24 27.6 °C 14.2 °C 1015.8 hPa SSW 7.4 km/h 7.4 km/h 44 % 0.0 mm
19:25 21.6 °C 15.4 °C 1017.8 hPa WSW 1.6 km/h 3.2 km/h 68 % 0.0 mm
19:29 27.5 °C 14.5 °C 1015.8 hPa WSW 5.6 km/h 5.6 km/h 45 % 0.0 mm
19:34 27.3 °C 14.3 °C 1015.8 hPa SW 9.3 km/h 9.3 km/h 45 % 0.0 mm
19:35 21.6 °C 15.7 °C 1017.8 hPa Calm   3.2 km/h 69 % 0.0 mm
19:39 27.0 °C 14.1 °C 1015.8 hPa South 13.0 km/h 13.0 km/h 45 % 0.0 mm
19:44 27.0 °C 14.1 °C 1015.8 hPa SSE 11.4 km/h 11.4 km/h 45 % 0.0 mm
19:45 21.4 °C 15.5 °C 1017.8 hPa WSW 1.6 km/h 3.2 km/h 69 % 0.0 mm
19:49 26.7 °C 14.1 °C 1015.8 hPa SW 13.0 km/h 13.0 km/h 46 % 0.0 mm
19:54 26.6 °C 14.1 °C 1015.8 hPa SW 10.3 km/h 10.3 km/h 46 % 0.0 mm
19:55 21.2 °C 15.3 °C 1017.8 hPa Calm   1.6 km/h 69 % 0.0 mm
19:59 26.3 °C 14.1 °C 1015.8 hPa SSW 5.6 km/h 5.6 km/h 47 % 0.0 mm
20:04 26.2 °C 14.0 °C 1015.8 hPa WSW 9.3 km/h 9.3 km/h 47 % 0.0 mm
20:05 21.1 °C 15.4 °C 1017.8 hPa Calm     70 % 0.0 mm
20:09 26.0 °C 14.1 °C 1015.8 hPa SSW 9.3 km/h 9.3 km/h 48 % 0.0 mm
20:14 25.9 °C 14.1 °C 1015.8 hPa WSW 7.4 km/h 7.4 km/h 48 % 0.0 mm
20:15 25.9 °C 14.1 °C 1015.8 hPa SW 4.7 km/h 4.7 km/h 48 % 0.0 mm
20:20 25.7 °C 13.9 °C 1015.8 hPa SW 5.6 km/h 5.6 km/h 48 % 0.0 mm
20:25 25.6 °C 13.8 °C 1015.8 hPa SSW 7.4 km/h 7.4 km/h 48 % 0.0 mm
20:30 25.5 °C 14.0 °C 1014.8 hPa South 5.6 km/h 5.6 km/h 49 % 0.0 mm
20:35 25.3 °C 13.8 °C 1014.8 hPa SW 5.6 km/h 5.6 km/h 49 % 0.0 mm
20:40 25.2 °C 13.7 °C 1014.8 hPa SSW 7.4 km/h 7.4 km/h 49 % 0.0 mm
20:45 25.0 °C 13.6 °C 1014.8 hPa SW 5.6 km/h 5.6 km/h 49 % 0.0 mm
20:50 24.8 °C 13.7 °C 1014.8 hPa SW 7.4 km/h 7.4 km/h 50 % 0.0 mm
20:55 24.6 °C 13.8 °C 1014.8 hPa WSW 5.6 km/h 5.6 km/h 51 % 0.0 mm
21:00 24.5 °C 13.7 °C 1015.8 hPa SW 7.4 km/h 7.4 km/h 51 % 0.0 mm
21:05 24.4 °C 13.9 °C 1015.8 hPa SW 7.4 km/h 7.4 km/h 52 % 0.0 mm
21:10 24.3 °C 13.8 °C 1015.8 hPa SW 6.1 km/h 6.1 km/h 52 % 0.0 mm
21:15 24.1 °C 13.9 °C 1015.8 hPa SW 9.0 km/h 9.0 km/h 53 % 0.0 mm
21:20 23.9 °C 14.0 °C 1015.8 hPa SSW 5.6 km/h 5.6 km/h 54 % 0.0 mm
21:25 23.8 °C 14.2 °C 1015.8 hPa West 5.6 km/h 5.6 km/h 55 % 0.0 mm
21:30 23.7 °C 14.1 °C 1015.8 hPa WSW 3.7 km/h 3.7 km/h 55 % 0.0 mm
21:35 23.6 °C 14.3 °C 1015.8 hPa WSW 3.7 km/h 3.7 km/h 56 % 0.0 mm
21:40 23.4 °C 14.1 °C 1015.8 hPa WSW 3.9 km/h 3.9 km/h 56 % 0.0 mm
21:45 23.3 °C 14.3 °C 1016.8 hPa WSW 4.2 km/h 4.2 km/h 57 % 0.0 mm
21:50 23.1 °C 14.1 °C 1016.8 hPa SW 7.4 km/h 7.4 km/h 57 % 0.0 mm
21:51 23.1 °C 14.1 °C 1016.8 hPa SW 3.7 km/h 3.7 km/h 57 % 0.0 mm
21:55 19.8 °C 15.4 °C 1017.8 hPa Calm   3.2 km/h 76 % 0.0 mm
21:56 22.9 °C 14.2 °C 1016.8 hPa WSW 5.6 km/h 5.6 km/h 58 % 0.0 mm
22:01 22.9 °C 14.4 °C 1016.8 hPa WSW 5.6 km/h 5.6 km/h 59 % 0.0 mm
22:05 19.6 °C 15.3 °C 1017.8 hPa Calm     76 % 0.0 mm
22:06 22.8 °C 14.4 °C 1016.8 hPa WSW 5.6 km/h 5.6 km/h 59 % 0.0 mm
22:11 22.7 °C 14.6 °C 1016.8 hPa SSW 5.6 km/h 5.6 km/h 60 % 0.0 mm
22:15 19.5 °C 15.3 °C 1017.8 hPa Calm     77 % 0.0 mm
22:16 22.6 °C 14.4 °C 1017.8 hPa WSW 4.7 km/h 4.7 km/h 60 % 0.0 mm
22:21 22.6 °C 14.7 °C 1017.8 hPa WSW 4.2 km/h 4.2 km/h 61 % 0.0 mm
22:25 19.4 °C 15.3 °C 1017.8 hPa Calm     77 % 0.0 mm
22:26 22.6 °C 14.7 °C 1017.8 hPa SW 7.4 km/h 7.4 km/h 61 % 0.0 mm
22:31 22.5 °C 14.8 °C 1017.8 hPa SW 7.4 km/h 7.4 km/h 62 % 0.0 mm
22:35 19.4 °C 15.3 °C 1016.8 hPa NE 1.6 km/h 3.2 km/h 77 % 0.0 mm
22:36 22.5 °C 15.1 °C 1017.8 hPa SW 3.9 km/h 3.9 km/h 63 % 0.0 mm
22:41 22.4 °C 15.0 °C 1017.8 hPa SW 4.2 km/h 4.2 km/h 63 % 0.0 mm
22:45 19.3 °C 15.2 °C 1016.8 hPa Calm   1.6 km/h 77 % 0.0 mm
22:46 22.3 °C 15.2 °C 1017.8 hPa WSW 3.7 km/h 3.7 km/h 64 % 0.0 mm
22:51 22.3 °C 15.2 °C 1017.8 hPa SSW 5.6 km/h 5.6 km/h 64 % 0.0 mm
22:55 19.4 °C 15.3 °C 1016.8 hPa Calm     77 % 0.0 mm
22:56 22.2 °C 15.1 °C 1017.8 hPa WSW 4.2 km/h 4.2 km/h 64 % 0.0 mm
23:01 22.1 °C 14.9 °C 1016.8 hPa SW 5.6 km/h 5.6 km/h 64 % 0.0 mm
23:05 19.3 °C 15.2 °C 1016.8 hPa Calm     77 % 0.0 mm
23:06 22.1 °C 15.2 °C 1016.8 hPa SW 3.7 km/h 3.7 km/h 65 % 0.0 mm
23:11 22.0 °C 15.1 °C 1016.8 hPa SSW 3.7 km/h 3.7 km/h 65 % 0.0 mm
23:15 19.2 °C 15.3 °C 1016.8 hPa Calm     78 % 0.0 mm
23:16 21.9 °C 15.3 °C 1017.8 hPa SW 3.7 km/h 3.7 km/h 66 % 0.0 mm
23:21 21.9 °C 15.3 °C 1017.8 hPa WSW 3.7 km/h 3.7 km/h 66 % 0.0 mm
23:25 19.0 °C 15.1 °C 1016.8 hPa Calm   3.2 km/h 78 % 0.0 mm
23:26 21.8 °C 15.4 °C 1017.8 hPa SW 2.3 km/h 2.3 km/h 67 % 0.0 mm
23:31 21.7 °C 15.3 °C 1017.8 hPa SW 3.7 km/h 3.7 km/h 67 % 0.0 mm
23:35 18.9 °C 15.4 °C 1016.8 hPa Calm     80 % 0.0 mm
23:36 21.7 °C 15.3 °C 1017.8 hPa SW 1.9 km/h 1.9 km/h 67 % 0.0 mm
23:41 21.7 °C 15.3 °C 1017.8 hPa SW 3.9 km/h 3.9 km/h 67 % 0.0 mm
23:45 18.8 °C 15.3 °C 1016.8 hPa SW 1.6 km/h 1.6 km/h 80 % 0.0 mm
23:46 21.7 °C 15.3 °C 1017.8 hPa West 3.7 km/h 3.7 km/h 67 % 0.0 mm
23:51 21.7 °C 15.3 °C 1017.8 hPa WSW 3.2 km/h 3.2 km/h 67 % 0.0 mm
23:55 18.8 °C 15.3 °C 1015.8 hPa Calm   1.6 km/h 80 % 0.0 mm
23:56 21.7 °C 15.3 °C 1017.8 hPa West 3.7 km/h 3.7 km/h 67 % 0.0 mm
Meteo Sesrovires
Elogis d' Weather Underground - 3.75 mb

Guio original per  Jim McMurry - jmcmurry@mwt.net Adaptat per a la plantilla per  Wim van der Kuil - Leuven-Template.eu

Trobareu la nostra informacio del temps tambe a:

Weather Underground

AWEKAS